Berlin — 9HA2295 — position and weather

sailwx.info

Track history (hours):
 
Tides and Currents Weather Stations Pressure Air Temp Water Temp Dewpoint Dewpoint Depression Visibility Wind Speed Wind Dir Waves Ship Positions

Berlin

Last reported at 2017-May-27 00:40 UTC. Time now 2017-May-29 20:39 UTC.
Position N 40°11' W 009°21'.

Length 140 m; draft 5 m.

Type: Ship. MMSI: 248277000.

Date/timePositionNaut miles runAvg speedWind from/ knotsBaromVisibWave heightAir tempDewpointWater temp
2017-May-27 00:40N 40°11' W 009°21'311.7
2017-May-27 00:27N 40°09' W 009°22'2211.5
2017-May-26 22:30N 39°49' W 009°35'711.4
2017-May-26 21:54N 39°42' W 009°39'611.7
2017-May-26 21:24N 39°37' W 009°42'511.8
2017-May-26 21:01N 39°33' W 009°44'611.4
2017-May-26 20:27N 39°26' W 009°43'511.0
2017-May-26 20:01N 39°22' W 009°43'611.0
2017-May-26 19:30N 39°16' W 009°43'611.2
2017-May-26 19:01N 39°10' W 009°43'510.8
2017-May-26 18:30N 39°05' W 009°43'510.6
2017-May-26 18:00N 38°60' W 009°43'611.0
2017-May-26 17:30N 38°54' W 009°43'510.7
2017-May-26 17:00N 38°49' W 009°43'5 9.7
2017-May-26 16:30N 38°44' W 009°42'510.2
2017-May-26 16:01N 38°39' W 009°41'510.6
2017-May-26 15:30N 38°38' W 009°34'611.9
2017-May-26 15:01N 38°37' W 009°27'1110.9
2017-May-26 14:01N 38°41' W 009°14'4 8.1
2017-May-26 13:30N 38°42' W 009°09'2 2.8
2017-May-26 12:58N 38°43' W 009°07'0 0.0
2017-May-26 12:28N 38°43' W 009°07'0 0.0
2017-May-26 11:58N 38°43' W 009°07'0 0.0
2017-May-26 11:28N 38°43' W 009°07'0 0.0
2017-May-26 10:55N 38°43' W 009°07'0 0.0
2017-May-26 10:28N 38°43' W 009°07'0 0.0
2017-May-26 09:58N 38°43' W 009°07'0 0.0
2017-May-26 09:28N 38°43' W 009°07'0 0.0
2017-May-26 08:58N 38°43' W 009°07'0 0.0
2017-May-26 08:28N 38°43' W 009°07'0 0.0
2017-May-26 07:55N 38°43' W 009°07'0 0.0
2017-May-26 07:28N 38°43' W 009°07'0 0.0
2017-May-26 06:58N 38°43' W 009°07'0 0.0
2017-May-26 06:25N 38°43' W 009°07'0 0.0
2017-May-26 05:58N 38°43' W 009°07'2 3.3
2017-May-26 05:30N 38°42' W 009°09'4 7.3
2017-May-26 05:00N 38°41' W 009°13'5 9.7
2017-May-26 04:30N 38°40' W 009°19'611.3
2017-May-26 04:00N 38°34' W 009°23'611.1
2017-May-26 03:30N 38°29' W 009°23'510.7
2017-May-26 03:00N 38°24' W 009°23'4 8.3
2017-May-26 02:30N 38°19' W 009°22'4 7.9
2017-May-26 02:00N 38°16' W 009°22'510.1
2017-May-26 01:30N 38°12' W 009°27'510.0
2017-May-26 01:00N 38°07' W 009°27'5 9.4
2017-May-26 00:30N 38°04' W 009°23'5 9.2
2017-May-26 00:00N 37°59' W 009°21'510.0
2017-May-25 23:30N 37°54' W 009°21'5 9.6
2017-May-25 23:00N 37°49' W 009°21'510.2
2017-May-25 22:30N 37°44' W 009°21'510.4
2017-May-25 22:00N 37°39' W 009°21'510.3
2017-May-25 21:30N 37°34' W 009°21'510.4
2017-May-25 21:00N 37°29' W 009°20'510.3
2017-May-25 20:30N 37°24' W 009°20'510.6
2017-May-25 20:00N 37°18' W 009°21'510.4
2017-May-25 19:30N 37°13' W 009°21'610.6
2017-May-25 18:59N 37°08' W 009°21'1510.6
2017-May-25 17:35N 36°53' W 009°17'310.6
2017-May-25 17:18N 36°51' W 009°15'510.6
2017-May-25 16:48N 36°47' W 009°11'310.5
2017-May-25 16:28N 36°45' W 009°07'510.9
2017-May-25 16:00N 36°43' W 009°01'611.3
2017-May-25 15:30N 36°42' W 008°54'611.1
2017-May-25 15:00N 36°40' W 008°48'1110.6
2017-May-25 13:57N 36°37' W 008°34'14711.0
2017-May-25 00:36N 35°58' W 005°38'114.8
2017-May-25 00:30N 35°58' W 005°36'714.3
2017-May-25 00:00N 36°00' W 005°28'714.3
2017-May-24 23:30N 36°02' W 005°19'714.1
2017-May-24 23:00N 36°06' W 005°12'218 4.9
2017-May-23 02:47N 37°12' W 000°53'414.6
2017-May-23 02:30N 37°14' W 000°49'2014.8
2017-May-23 01:07N 37°26' W 000°28'415.0
2017-May-23 00:52N 37°28' W 000°24'714.9
2017-May-23 00:25N 37°32' W 000°17'2914.8
2017-May-22 22:26N 37°49' E 000°13'1414.7
2017-May-22 21:29N 37°58' E 000°27'714.2
2017-May-22 20:59N 38°02' E 000°34'1314.2
2017-May-22 20:03N 38°10' E 000°48'114.2
2017-May-22 19:59N 38°10' E 000°49'914.0
2017-May-22 19:20N 38°16' E 000°58'713.9
2017-May-22 18:49N 38°20' E 001°06'514.1
2017-May-22 18:30N 38°23' E 001°10'714.0
2017-May-22 18:00N 38°26' E 001°18'714.0
2017-May-22 17:30N 38°31' E 001°25'714.2
2017-May-22 17:00N 38°35' E 001°32'713.5
2017-May-22 16:30N 38°40' E 001°38'713.7
2017-May-22 16:00N 38°46' E 001°34'713.6
2017-May-22 15:31N 38°52' E 001°30'4 0.6
2017-May-22 09:54N 38°55' E 001°27'1 3.7
2017-May-22 09:30N 38°54' E 001°28'713.4
2017-May-22 09:01N 38°56' E 001°36'713.4
2017-May-22 08:30N 39°01' E 001°42'713.4
2017-May-22 08:01N 39°07' E 001°46'713.1
2017-May-22 07:30N 39°14' E 001°47'510.4
2017-May-22 07:00N 39°19' E 001°48'510.7
2017-May-22 06:30N 39°24' E 001°49'510.8
2017-May-22 06:00N 39°29' E 001°50'510.8
2017-May-22 05:30N 39°35' E 001°51'610.6
2017-May-22 04:57N 39°40' E 001°52'4 9.9
2017-May-22 04:30N 39°45' E 001°53'5 9.7
2017-May-22 04:00N 39°50' E 001°55'5 9.8
2017-May-22 03:30N 39°54' E 001°56'5 9.9
2017-May-22 03:00N 39°59' E 001°57'510.3
2017-May-22 02:30N 40°04' E 001°58'510.6
2017-May-22 02:00N 40°10' E 001°59'510.5
2017-May-22 01:30N 40°15' E 002°01'611.5
2017-May-22 01:00N 40°20' E 002°02'611.6
2017-May-22 00:30N 40°26' E 002°03'611.5
2017-May-22 00:00N 40°32' E 002°04'511.1
2017-May-21 23:30N 40°37' E 002°05'611.0
2017-May-21 23:00N 40°43' E 002°06'611.3
2017-May-21 22:30N 40°48' E 002°07'611.4
2017-May-21 22:00N 40°54' E 002°09'611.5
2017-May-21 21:30N 40°59' E 002°10'611.6
2017-May-21 21:00N 41°05' E 002°11'611.6
2017-May-21 20:30N 41°11' E 002°12'611.5
2017-May-21 20:00N 41°17' E 002°13'5 9.3
2017-May-21 19:30N 41°21' E 002°11'1 0.1
2017-May-21 10:59N 41°22' E 002°11'6 7.3
2017-May-21 10:07N 41°18' E 002°17'213.7
2017-May-21 09:59N 41°17' E 002°20'712.0
2017-May-21 09:25N 41°14' E 002°27'4 9.9
2017-May-21 09:00N 41°16' E 002°31'611.4
2017-May-21 08:30N 41°21' E 002°35'1111.2
2017-May-21 07:31N 41°29' E 002°45'9712.1
2017-May-20 23:31N 42°30' E 004°27'016.0
2017-May-20 23:31N 42°30' E 004°27'713.5
2017-May-20 23:00N 42°35' E 004°33'714.0
2017-May-20 22:30N 42°37' E 004°42'714.2
2017-May-20 22:00N 42°39' E 004°52'714.3
2017-May-20 21:31N 42°40' E 005°01'714.3
2017-May-20 20:59N 42°42' E 005°11'714.2
2017-May-20 20:30N 42°44' E 005°20'714.2
2017-May-20 20:00N 42°46' E 005°29'6313.5
2017-May-20 15:21N 43°11' E 006°48'515.0
2017-May-20 15:01N 43°15' E 006°52'815.4
2017-May-20 14:30N 43°21' E 006°59'1515.1
2017-May-20 13:31N 43°33' E 007°12'713.7
2017-May-20 13:00N 43°39' E 007°16'3 5.0
2017-May-20 12:29N 43°42' E 007°17'0 0.0
2017-May-20 11:59N 43°42' E 007°17'0 0.0
2017-May-20 10:17N 43°42' E 007°17'0 0.0
2017-May-20 09:56N 43°42' E 007°17'0 0.0
2017-May-20 06:29N 43°42' E 007°17'0 0.0
2017-May-20 05:59N 43°42' E 007°17'0 0.4
2017-May-20 05:30N 43°41' E 007°17'4 7.1
2017-May-20 05:00N 43°38' E 007°17'611.9
2017-May-20 04:30N 43°35' E 007°25'713.4
2017-May-20 04:00N 43°34' E 007°34'713.8
2017-May-20 03:30N 43°33' E 007°43'814.9
2017-May-20 02:59N 43°33' E 007°54'814.9
2017-May-20 02:28N 43°33' E 008°04'1512.0
2017-May-20 01:13N 43°23' E 008°20'513.3
2017-May-20 00:48N 43°25' E 008°27'413.2
2017-May-20 00:30N 43°23' E 008°31'713.3
2017-May-20 00:00N 43°20' E 008°39'713.4
2017-May-19 23:30N 43°17' E 008°47'713.6
2017-May-19 23:00N 43°15' E 008°56'713.6
2017-May-19 22:30N 43°13' E 009°05'713.3
2017-May-19 22:01N 43°11' E 009°14'713.4
2017-May-19 21:28N 43°08' E 009°23'613.3
2017-May-19 20:59N 43°05' E 009°31'1713.7
2017-May-19 19:46N 42°51' E 009°41'6114.5
2017-May-19 15:32N 41°49' E 009°43'414.0
2017-May-19 15:15N 41°45' E 009°43'313.9
2017-May-19 15:00N 41°42' E 009°43'1513.9
2017-May-19 13:54N 41°26' E 009°43'614.1
2017-May-19 13:30N 41°21' E 009°44'714.0
2017-May-19 13:00N 41°14' E 009°44'714.0
2017-May-19 12:30N 41°07' E 009°43'814.4
2017-May-19 11:57N 40°59' E 009°43'613.6
2017-May-19 11:30N 40°56' E 009°36'54 4.0
2017-May-18 21:47N 40°02' E 009°46'311.0
2017-May-18 21:28N 39°59' E 009°44'3 0.2
2017-May-18 10:21N 39°56' E 009°42'0 0.0
2017-May-18 06:36N 39°56' E 009°42'0 0.0
2017-May-18 05:03N 39°56' E 009°42'0 1.2
2017-May-18 04:59N 39°56' E 009°42'2 4.5
2017-May-18 04:30N 39°56' E 009°45'712.0
2017-May-18 03:57N 39°50' E 009°48'613.8
2017-May-18 03:30N 39°44' E 009°47'713.9
2017-May-18 02:59N 39°36' E 009°46'713.7
2017-May-18 02:29N 39°30' E 009°46'611.8
2017-May-18 02:00N 39°24' E 009°45'611.4
2017-May-18 01:29N 39°18' E 009°44'611.5
2017-May-18 00:59N 39°12' E 009°44'511.0
2017-May-18 00:29N 39°07' E 009°43'511.2
2017-May-18 00:00N 39°03' E 009°38'611.1
2017-May-17 23:29N 38°59' E 009°33'1211.2
2017-May-17 22:26N 39°05' E 009°19'511.6
2017-May-17 21:59N 39°07' E 009°14'611.6
2017-May-17 21:30N 39°10' E 009°07'3 4.8
2017-May-17 20:58N 39°13' E 009°06'0 0.0
2017-May-17 20:28N 39°13' E 009°06'0 0.0
2017-May-17 19:58N 39°13' E 009°06'0 0.0
2017-May-17 19:28N 39°13' E 009°06'0 0.0
2017-May-17 18:58N 39°13' E 009°06'0 0.0
2017-May-17 18:25N 39°13' E 009°06'0 0.0
2017-May-17 17:58N 39°13' E 009°06'0 0.0
2017-May-17 17:28N 39°13' E 009°06'0 0.0
2017-May-17 16:58N 39°13' E 009°06'0 0.0
2017-May-17 16:28N 39°13' E 009°06'0 0.0
2017-May-17 15:58N 39°13' E 009°06'0 0.0
2017-May-17 15:28N 39°13' E 009°06'0 0.0
2017-May-17 14:58N 39°13' E 009°06'0 0.0
2017-May-17 14:28N 39°13' E 009°06'0 0.0
2017-May-17 13:28N 39°13' E 009°06'0 0.0
2017-May-17 12:58N 39°13' E 009°06'0 0.0
2017-May-17 12:28N 39°13' E 009°06'0 0.0
2017-May-17 11:58N 39°13' E 009°06'0 0.0
2017-May-17 11:28N 39°13' E 009°06'0 0.0
2017-May-17 10:58N 39°13' E 009°06'0 0.0
2017-May-17 10:28N 39°13' E 009°06'0 0.0
2017-May-17 09:58N 39°13' E 009°06'0 0.0
2017-May-17 09:28N 39°13' E 009°06'0 0.0
2017-May-17 08:58N 39°13' E 009°06'0 0.0
2017-May-17 08:28N 39°13' E 009°06'0 0.0
2017-May-17 07:58N 39°13' E 009°06'0 0.0
2017-May-17 07:28N 39°13' E 009°06'0 0.0
2017-May-17 06:58N 39°13' E 009°06'0 0.0
2017-May-17 06:28N 39°13' E 009°06'0 0.0
2017-May-17 05:58N 39°13' E 009°06'0 0.0
2017-May-17 05:28N 39°13' E 009°06'0 0.0
2017-May-17 05:00N 39°13' E 009°06'1 1.8
2017-May-17 04:30N 39°12' E 009°07'612.4
2017-May-17 04:00N 39°06' E 009°09'714.1
2017-May-17 03:30N 38°59' E 009°09'714.1
2017-May-17 03:00N 38°54' E 009°02'714.2
2017-May-17 02:30N 38°50' E 008°55'714.1
2017-May-17 02:00N 38°49' E 008°46'  
Track history (hours):
 
Tides and Currents Weather Stations Pressure Air Temp Water Temp Dewpoint Dewpoint Depression Visibility Wind Speed Wind Dir Waves Ship Positions

Berlin

Last reported at 2017-May-27 00:40 UTC. Time now 2017-May-29 20:39 UTC.
Position N 40°11' W 009°21'.

Length 140 m; draft 5 m.

Type: Ship. MMSI: 248277000.

Date/timePositionNaut miles runAvg speedWind from/ knotsBaromVisibWave heightAir tempDewpointWater temp
2017-May-27 00:40N 40°11' W 009°21'311.7
2017-May-27 00:27N 40°09' W 009°22'2211.5
2017-May-26 22:30N 39°49' W 009°35'711.4
2017-May-26 21:54N 39°42' W 009°39'611.7
2017-May-26 21:24N 39°37' W 009°42'511.8
2017-May-26 21:01N 39°33' W 009°44'611.4
2017-May-26 20:27N 39°26' W 009°43'511.0
2017-May-26 20:01N 39°22' W 009°43'611.0
2017-May-26 19:30N 39°16' W 009°43'611.2
2017-May-26 19:01N 39°10' W 009°43'510.8
2017-May-26 18:30N 39°05' W 009°43'510.6
2017-May-26 18:00N 38°60' W 009°43'611.0
2017-May-26 17:30N 38°54' W 009°43'510.7
2017-May-26 17:00N 38°49' W 009°43'5 9.7
2017-May-26 16:30N 38°44' W 009°42'510.2
2017-May-26 16:01N 38°39' W 009°41'510.6
2017-May-26 15:30N 38°38' W 009°34'611.9
2017-May-26 15:01N 38°37' W 009°27'1110.9
2017-May-26 14:01N 38°41' W 009°14'4 8.1
2017-May-26 13:30N 38°42' W 009°09'2 2.8
2017-May-26 12:58N 38°43' W 009°07'0 0.0
2017-May-26 12:28N 38°43' W 009°07'0 0.0
2017-May-26 11:58N 38°43' W 009°07'0 0.0
2017-May-26 11:28N 38°43' W 009°07'0 0.0
2017-May-26 10:55N 38°43' W 009°07'0 0.0
2017-May-26 10:28N 38°43' W 009°07'0 0.0
2017-May-26 09:58N 38°43' W 009°07'0 0.0
2017-May-26 09:28N 38°43' W 009°07'0 0.0
2017-May-26 08:58N 38°43' W 009°07'0 0.0
2017-May-26 08:28N 38°43' W 009°07'0 0.0
2017-May-26 07:55N 38°43' W 009°07'0 0.0
2017-May-26 07:28N 38°43' W 009°07'0 0.0
2017-May-26 06:58N 38°43' W 009°07'0 0.0
2017-May-26 06:25N 38°43' W 009°07'0 0.0
2017-May-26 05:58N 38°43' W 009°07'2 3.3
2017-May-26 05:30N 38°42' W 009°09'4 7.3
2017-May-26 05:00N 38°41' W 009°13'5 9.7
2017-May-26 04:30N 38°40' W 009°19'611.3
2017-May-26 04:00N 38°34' W 009°23'611.1
2017-May-26 03:30N 38°29' W 009°23'510.7
2017-May-26 03:00N 38°24' W 009°23'4 8.3
2017-May-26 02:30N 38°19' W 009°22'4 7.9
2017-May-26 02:00N 38°16' W 009°22'510.1
2017-May-26 01:30N 38°12' W 009°27'510.0
2017-May-26 01:00N 38°07' W 009°27'5 9.4
2017-May-26 00:30N 38°04' W 009°23'5 9.2
2017-May-26 00:00N 37°59' W 009°21'510.0
2017-May-25 23:30N 37°54' W 009°21'5 9.6
2017-May-25 23:00N 37°49' W 009°21'510.2
2017-May-25 22:30N 37°44' W 009°21'510.4
2017-May-25 22:00N 37°39' W 009°21'510.3
2017-May-25 21:30N 37°34' W 009°21'510.4
2017-May-25 21:00N 37°29' W 009°20'510.3
2017-May-25 20:30N 37°24' W 009°20'510.6
2017-May-25 20:00N 37°18' W 009°21'510.4
2017-May-25 19:30N 37°13' W 009°21'610.6
2017-May-25 18:59N 37°08' W 009°21'1510.6
2017-May-25 17:35N 36°53' W 009°17'310.6
2017-May-25 17:18N 36°51' W 009°15'510.6
2017-May-25 16:48N 36°47' W 009°11'310.5
2017-May-25 16:28N 36°45' W 009°07'510.9
2017-May-25 16:00N 36°43' W 009°01'611.3
2017-May-25 15:30N 36°42' W 008°54'611.1
2017-May-25 15:00N 36°40' W 008°48'1110.6
2017-May-25 13:57N 36°37' W 008°34'14711.0
2017-May-25 00:36N 35°58' W 005°38'114.8
2017-May-25 00:30N 35°58' W 005°36'714.3
2017-May-25 00:00N 36°00' W 005°28'714.3
2017-May-24 23:30N 36°02' W 005°19'714.1
2017-May-24 23:00N 36°06' W 005°12'218 4.9
2017-May-23 02:47N 37°12' W 000°53'414.6
2017-May-23 02:30N 37°14' W 000°49'2014.8
2017-May-23 01:07N 37°26' W 000°28'415.0
2017-May-23 00:52N 37°28' W 000°24'714.9
2017-May-23 00:25N 37°32' W 000°17'2914.8
2017-May-22 22:26N 37°49' E 000°13'1414.7
2017-May-22 21:29N 37°58' E 000°27'714.2
2017-May-22 20:59N 38°02' E 000°34'1314.2
2017-May-22 20:03N 38°10' E 000°48'114.2
2017-May-22 19:59N 38°10' E 000°49'914.0
2017-May-22 19:20N 38°16' E 000°58'713.9
2017-May-22 18:49N 38°20' E 001°06'514.1
2017-May-22 18:30N 38°23' E 001°10'714.0
2017-May-22 18:00N 38°26' E 001°18'714.0
2017-May-22 17:30N 38°31' E 001°25'714.2
2017-May-22 17:00N 38°35' E 001°32'713.5
2017-May-22 16:30N 38°40' E 001°38'713.7
2017-May-22 16:00N 38°46' E 001°34'713.6
2017-May-22 15:31N 38°52' E 001°30'4 0.6
2017-May-22 09:54N 38°55' E 001°27'1 3.7
2017-May-22 09:30N 38°54' E 001°28'713.4
2017-May-22 09:01N 38°56' E 001°36'713.4
2017-May-22 08:30N 39°01' E 001°42'713.4
2017-May-22 08:01N 39°07' E 001°46'713.1
2017-May-22 07:30N 39°14' E 001°47'510.4
2017-May-22 07:00N 39°19' E 001°48'510.7
2017-May-22 06:30N 39°24' E 001°49'510.8
2017-May-22 06:00N 39°29' E 001°50'510.8
2017-May-22 05:30N 39°35' E 001°51'610.6
2017-May-22 04:57N 39°40' E 001°52'4 9.9
2017-May-22 04:30N 39°45' E 001°53'5 9.7
2017-May-22 04:00N 39°50' E 001°55'5 9.8
2017-May-22 03:30N 39°54' E 001°56'5 9.9
2017-May-22 03:00N 39°59' E 001°57'510.3
2017-May-22 02:30N 40°04' E 001°58'510.6
2017-May-22 02:00N 40°10' E 001°59'510.5
2017-May-22 01:30N 40°15' E 002°01'611.5
2017-May-22 01:00N 40°20' E 002°02'611.6
2017-May-22 00:30N 40°26' E 002°03'611.5
2017-May-22 00:00N 40°32' E 002°04'511.1
2017-May-21 23:30N 40°37' E 002°05'611.0
2017-May-21 23:00N 40°43' E 002°06'611.3
2017-May-21 22:30N 40°48' E 002°07'611.4
2017-May-21 22:00N 40°54' E 002°09'611.5
2017-May-21 21:30N 40°59' E 002°10'611.6
2017-May-21 21:00N 41°05' E 002°11'611.6
2017-May-21 20:30N 41°11' E 002°12'611.5
2017-May-21 20:00N 41°17' E 002°13'5 9.3
2017-May-21 19:30N 41°21' E 002°11'1 0.1
2017-May-21 10:59N 41°22' E 002°11'6 7.3
2017-May-21 10:07N 41°18' E 002°17'213.7
2017-May-21 09:59N 41°17' E 002°20'712.0
2017-May-21 09:25N 41°14' E 002°27'4 9.9
2017-May-21 09:00N 41°16' E 002°31'611.4
2017-May-21 08:30N 41°21' E 002°35'1111.2
2017-May-21 07:31N 41°29' E 002°45'9712.1
2017-May-20 23:31N 42°30' E 004°27'016.0
2017-May-20 23:31N 42°30' E 004°27'713.5
2017-May-20 23:00N 42°35' E 004°33'714.0
2017-May-20 22:30N 42°37' E 004°42'714.2
2017-May-20 22:00N 42°39' E 004°52'714.3
2017-May-20 21:31N 42°40' E 005°01'714.3
2017-May-20 20:59N 42°42' E 005°11'714.2
2017-May-20 20:30N 42°44' E 005°20'714.2
2017-May-20 20:00N 42°46' E 005°29'6313.5
2017-May-20 15:21N 43°11' E 006°48'515.0
2017-May-20 15:01N 43°15' E 006°52'815.4
2017-May-20 14:30N 43°21' E 006°59'1515.1
2017-May-20 13:31N 43°33' E 007°12'713.7
2017-May-20 13:00N 43°39' E 007°16'3 5.0
2017-May-20 12:29N 43°42' E 007°17'0 0.0
2017-May-20 11:59N 43°42' E 007°17'0 0.0
2017-May-20 10:17N 43°42' E 007°17'0 0.0
2017-May-20 09:56N 43°42' E 007°17'0 0.0
2017-May-20 06:29N 43°42' E 007°17'0 0.0
2017-May-20 05:59N 43°42' E 007°17'0 0.4
2017-May-20 05:30N 43°41' E 007°17'4 7.1
2017-May-20 05:00N 43°38' E 007°17'611.9
2017-May-20 04:30N 43°35' E 007°25'713.4
2017-May-20 04:00N 43°34' E 007°34'713.8
2017-May-20 03:30N 43°33' E 007°43'814.9
2017-May-20 02:59N 43°33' E 007°54'814.9
2017-May-20 02:28N 43°33' E 008°04'1512.0
2017-May-20 01:13N 43°23' E 008°20'513.3
2017-May-20 00:48N 43°25' E 008°27'413.2
2017-May-20 00:30N 43°23' E 008°31'713.3
2017-May-20 00:00N 43°20' E 008°39'713.4
2017-May-19 23:30N 43°17' E 008°47'713.6
2017-May-19 23:00N 43°15' E 008°56'713.6
2017-May-19 22:30N 43°13' E 009°05'713.3
2017-May-19 22:01N 43°11' E 009°14'713.4
2017-May-19 21:28N 43°08' E 009°23'613.3
2017-May-19 20:59N 43°05' E 009°31'1713.7
2017-May-19 19:46N 42°51' E 009°41'6114.5
2017-May-19 15:32N 41°49' E 009°43'414.0
2017-May-19 15:15N 41°45' E 009°43'313.9
2017-May-19 15:00N 41°42' E 009°43'1513.9
2017-May-19 13:54N 41°26' E 009°43'614.1
2017-May-19 13:30N 41°21' E 009°44'714.0
2017-May-19 13:00N 41°14' E 009°44'714.0
2017-May-19 12:30N 41°07' E 009°43'814.4
2017-May-19 11:57N 40°59' E 009°43'613.6
2017-May-19 11:30N 40°56' E 009°36'54 4.0
2017-May-18 21:47N 40°02' E 009°46'311.0
2017-May-18 21:28N 39°59' E 009°44'3 0.2
2017-May-18 10:21N 39°56' E 009°42'0 0.0
2017-May-18 06:36N 39°56' E 009°42'0 0.0
2017-May-18 05:03N 39°56' E 009°42'0 1.2
2017-May-18 04:59N 39°56' E 009°42'2 4.5
2017-May-18 04:30N 39°56' E 009°45'712.0
2017-May-18 03:57N 39°50' E 009°48'613.8
2017-May-18 03:30N 39°44' E 009°47'713.9
2017-May-18 02:59N 39°36' E 009°46'713.7
2017-May-18 02:29N 39°30' E 009°46'611.8
2017-May-18 02:00N 39°24' E 009°45'611.4
2017-May-18 01:29N 39°18' E 009°44'611.5
2017-May-18 00:59N 39°12' E 009°44'511.0
2017-May-18 00:29N 39°07' E 009°43'511.2
2017-May-18 00:00N 39°03' E 009°38'611.1
2017-May-17 23:29N 38°59' E 009°33'1211.2
2017-May-17 22:26N 39°05' E 009°19'511.6
2017-May-17 21:59N 39°07' E 009°14'611.6
2017-May-17 21:30N 39°10' E 009°07'3 4.8
2017-May-17 20:58N 39°13' E 009°06'0 0.0
2017-May-17 20:28N 39°13' E 009°06'0 0.0
2017-May-17 19:58N 39°13' E 009°06'0 0.0
2017-May-17 19:28N 39°13' E 009°06'0 0.0
2017-May-17 18:58N 39°13' E 009°06'0 0.0
2017-May-17 18:25N 39°13' E 009°06'0 0.0
2017-May-17 17:58N 39°13' E 009°06'0 0.0
2017-May-17 17:28N 39°13' E 009°06'0 0.0
2017-May-17 16:58N 39°13' E 009°06'0 0.0
2017-May-17 16:28N 39°13' E 009°06'0 0.0
2017-May-17 15:58N 39°13' E 009°06'0 0.0
2017-May-17 15:28N 39°13' E 009°06'0 0.0
2017-May-17 14:58N 39°13' E 009°06'0 0.0
2017-May-17 14:28N 39°13' E 009°06'0 0.0
2017-May-17 13:28N 39°13' E 009°06'0 0.0
2017-May-17 12:58N 39°13' E 009°06'0 0.0
2017-May-17 12:28N 39°13' E 009°06'0 0.0
2017-May-17 11:58N 39°13' E 009°06'0 0.0
2017-May-17 11:28N 39°13' E 009°06'0 0.0
2017-May-17 10:58N 39°13' E 009°06'0 0.0
2017-May-17 10:28N 39°13' E 009°06'0 0.0
2017-May-17 09:58N 39°13' E 009°06'0 0.0
2017-May-17 09:28N 39°13' E 009°06'0 0.0
2017-May-17 08:58N 39°13' E 009°06'0 0.0
2017-May-17 08:28N 39°13' E 009°06'0 0.0
2017-May-17 07:58N 39°13' E 009°06'0 0.0
2017-May-17 07:28N 39°13' E 009°06'0 0.0
2017-May-17 06:58N 39°13' E 009°06'0 0.0
2017-May-17 06:28N 39°13' E 009°06'0 0.0
2017-May-17 05:58N 39°13' E 009°06'0 0.0
2017-May-17 05:28N 39°13' E 009°06'0 0.0
2017-May-17 05:00N 39°13' E 009°06'1 1.8
2017-May-17 04:30N 39°12' E 009°07'612.4
2017-May-17 04:00N 39°06' E 009°09'714.1
2017-May-17 03:30N 38°59' E 009°09'714.1
2017-May-17 03:00N 38°54' E 009°02'714.2
2017-May-17 02:30N 38°50' E 008°55'714.1
2017-May-17 02:00N 38°49' E 008°46'  

Dump ship's entire track history